sensor_id;sensor_type;location;lat;lon;timestamp;P1;durP1;ratioP1;P2;durP2;ratioP2
5460;SDS011;2753;49.196;8.286;2022-07-10T00:01:47;9.77;;;3.67;;
5460;SDS011;2753;49.196;8.286;2022-07-10T00:04:13;4.23;;;4.00;;
5460;SDS011;2753;49.196;8.286;2022-07-10T00:06:39;4.93;;;4.57;;
5460;SDS011;2753;49.196;8.286;2022-07-10T00:09:06;5.97;;;4.47;;
5460;SDS011;2753;49.196;8.286;2022-07-10T00:11:32;5.40;;;3.60;;
5460;SDS011;2753;49.196;8.286;2022-07-10T00:13:58;22.90;;;4.50;;
5460;SDS011;2753;49.196;8.286;2022-07-10T00:16:24;3.60;;;3.30;;
5460;SDS011;2753;49.196;8.286;2022-07-10T00:18:50;4.03;;;3.70;;
5460;SDS011;2753;49.196;8.286;2022-07-10T00:21:16;3.83;;;3.53;;
5460;SDS011;2753;49.196;8.286;2022-07-10T00:23:42;3.93;;;3.63;;
5460;SDS011;2753;49.196;8.286;2022-07-10T00:26:08;5.17;;;3.90;;
5460;SDS011;2753;49.196;8.286;2022-07-10T00:28:34;4.30;;;3.97;;
5460;SDS011;2753;49.196;8.286;2022-07-10T00:31:01;3.97;;;3.67;;
5460;SDS011;2753;49.196;8.286;2022-07-10T00:33:27;3.40;;;3.20;;
5460;SDS011;2753;49.196;8.286;2022-07-10T00:35:53;6.17;;;4.17;;
5460;SDS011;2753;49.196;8.286;2022-07-10T00:38:18;3.17;;;2.87;;
5460;SDS011;2753;49.196;8.286;2022-07-10T00:40:44;4.67;;;3.47;;
5460;SDS011;2753;49.196;8.286;2022-07-10T00:43:10;5.53;;;3.90;;
5460;SDS011;2753;49.196;8.286;2022-07-10T00:45:36;3.83;;;3.47;;
5460;SDS011;2753;49.196;8.286;2022-07-10T00:48:02;4.83;;;3.17;;
5460;SDS011;2753;49.196;8.286;2022-07-10T00:50:28;3.27;;;2.60;;
5460;SDS011;2753;49.196;8.286;2022-07-10T00:52:54;3.27;;;2.77;;
5460;SDS011;2753;49.196;8.286;2022-07-10T00:55:20;2.80;;;2.60;;
5460;SDS011;2753;49.196;8.286;2022-07-10T00:57:47;4.27;;;2.53;;
5460;SDS011;2753;49.196;8.286;2022-07-10T01:00:13;4.73;;;2.50;;
5460;SDS011;2753;49.196;8.286;2022-07-10T01:02:42;2.77;;;2.53;;
5460;SDS011;2753;49.196;8.286;2022-07-10T01:05:08;3.17;;;2.33;;
5460;SDS011;2753;49.196;8.286;2022-07-10T01:07:35;2.80;;;2.10;;
5460;SDS011;2753;49.196;8.286;2022-07-10T01:10:01;2.57;;;2.00;;
5460;SDS011;2753;49.196;8.286;2022-07-10T01:12:27;1.50;;;1.40;;
5460;SDS011;2753;49.196;8.286;2022-07-10T01:14:54;3.57;;;2.23;;
5460;SDS011;2753;49.196;8.286;2022-07-10T01:17:20;7.50;;;2.23;;
5460;SDS011;2753;49.196;8.286;2022-07-10T01:19:49;8.73;;;2.37;;
5460;SDS011;2753;49.196;8.286;2022-07-10T01:22:14;4.13;;;1.83;;
5460;SDS011;2753;49.196;8.286;2022-07-10T01:24:40;6.33;;;1.90;;
5460;SDS011;2753;49.196;8.286;2022-07-10T01:27:06;6.00;;;2.57;;
5460;SDS011;2753;49.196;8.286;2022-07-10T01:29:33;3.23;;;2.20;;
5460;SDS011;2753;49.196;8.286;2022-07-10T01:32:00;1.97;;;1.77;;
5460;SDS011;2753;49.196;8.286;2022-07-10T01:34:26;7.83;;;1.77;;
5460;SDS011;2753;49.196;8.286;2022-07-10T01:36:53;2.20;;;1.60;;
5460;SDS011;2753;49.196;8.286;2022-07-10T01:39:19;4.10;;;2.13;;
5460;SDS011;2753;49.196;8.286;2022-07-10T01:41:45;4.97;;;1.70;;
5460;SDS011;2753;49.196;8.286;2022-07-10T01:44:10;3.57;;;2.10;;
5460;SDS011;2753;49.196;8.286;2022-07-10T01:46:42;7.80;;;2.10;;
5460;SDS011;2753;49.196;8.286;2022-07-10T01:49:12;5.10;;;1.90;;
5460;SDS011;2753;49.196;8.286;2022-07-10T01:51:38;4.57;;;2.23;;
5460;SDS011;2753;49.196;8.286;2022-07-10T01:54:04;1.60;;;1.50;;
5460;SDS011;2753;49.196;8.286;2022-07-10T01:56:29;1.60;;;1.30;;
5460;SDS011;2753;49.196;8.286;2022-07-10T01:58:55;4.30;;;1.93;;
5460;SDS011;2753;49.196;8.286;2022-07-10T02:01:21;3.13;;;2.10;;
5460;SDS011;2753;49.196;8.286;2022-07-10T02:03:46;4.10;;;1.90;;
5460;SDS011;2753;49.196;8.286;2022-07-10T02:06:50;5.03;;;1.63;;
5460;SDS011;2753;49.196;8.286;2022-07-10T02:09:16;8.17;;;1.93;;
5460;SDS011;2753;49.196;8.286;2022-07-10T02:11:41;4.20;;;1.87;;
5460;SDS011;2753;49.196;8.286;2022-07-10T02:14:07;6.17;;;1.90;;
5460;SDS011;2753;49.196;8.286;2022-07-10T02:16:33;4.00;;;1.43;;
5460;SDS011;2753;49.196;8.286;2022-07-10T02:18:59;2.30;;;1.80;;
5460;SDS011;2753;49.196;8.286;2022-07-10T02:21:25;9.00;;;1.90;;
5460;SDS011;2753;49.196;8.286;2022-07-10T02:23:50;3.37;;;1.73;;
5460;SDS011;2753;49.196;8.286;2022-07-10T02:26:16;3.77;;;1.80;;
5460;SDS011;2753;49.196;8.286;2022-07-10T02:28:41;3.43;;;1.97;;
5460;SDS011;2753;49.196;8.286;2022-07-10T02:31:07;5.37;;;1.90;;
5460;SDS011;2753;49.196;8.286;2022-07-10T02:33:33;7.70;;;1.60;;
5460;SDS011;2753;49.196;8.286;2022-07-10T02:35:59;3.63;;;1.70;;
5460;SDS011;2753;49.196;8.286;2022-07-10T02:38:24;3.50;;;1.90;;
5460;SDS011;2753;49.196;8.286;2022-07-10T02:40:50;2.90;;;1.87;;
5460;SDS011;2753;49.196;8.286;2022-07-10T02:43:16;3.73;;;1.60;;
5460;SDS011;2753;49.196;8.286;2022-07-10T02:45:41;3.70;;;1.70;;
5460;SDS011;2753;49.196;8.286;2022-07-10T02:48:07;3.27;;;1.60;;
5460;SDS011;2753;49.196;8.286;2022-07-10T02:50:33;4.37;;;1.83;;
5460;SDS011;2753;49.196;8.286;2022-07-10T02:52:58;4.03;;;1.30;;
5460;SDS011;2753;49.196;8.286;2022-07-10T02:55:24;4.03;;;1.80;;
5460;SDS011;2753;49.196;8.286;2022-07-10T02:57:49;4.77;;;1.37;;
5460;SDS011;2753;49.196;8.286;2022-07-10T03:00:15;10.60;;;1.83;;
5460;SDS011;2753;49.196;8.286;2022-07-10T03:02:41;7.80;;;1.70;;
5460;SDS011;2753;49.196;8.286;2022-07-10T03:05:07;5.53;;;1.50;;
5460;SDS011;2753;49.196;8.286;2022-07-10T03:07:33;2.33;;;1.63;;
5460;SDS011;2753;49.196;8.286;2022-07-10T03:09:58;7.23;;;1.67;;
5460;SDS011;2753;49.196;8.286;2022-07-10T03:12:24;5.23;;;1.47;;
5460;SDS011;2753;49.196;8.286;2022-07-10T03:14:49;2.13;;;1.30;;
5460;SDS011;2753;49.196;8.286;2022-07-10T03:17:15;5.70;;;1.83;;
5460;SDS011;2753;49.196;8.286;2022-07-10T03:19:41;2.87;;;1.23;;
5460;SDS011;2753;49.196;8.286;2022-07-10T03:22:06;3.87;;;1.40;;
5460;SDS011;2753;49.196;8.286;2022-07-10T03:24:32;3.43;;;1.50;;
5460;SDS011;2753;49.196;8.286;2022-07-10T03:26:58;4.00;;;1.30;;
5460;SDS011;2753;49.196;8.286;2022-07-10T03:29:23;6.97;;;1.37;;
5460;SDS011;2753;49.196;8.286;2022-07-10T03:31:49;2.73;;;1.43;;
5460;SDS011;2753;49.196;8.286;2022-07-10T03:34:14;2.87;;;1.60;;
5460;SDS011;2753;49.196;8.286;2022-07-10T03:36:40;2.50;;;1.30;;
5460;SDS011;2753;49.196;8.286;2022-07-10T03:39:06;3.80;;;1.60;;
5460;SDS011;2753;49.196;8.286;2022-07-10T03:41:31;2.23;;;1.43;;
5460;SDS011;2753;49.196;8.286;2022-07-10T03:43:57;3.97;;;1.70;;
5460;SDS011;2753;49.196;8.286;2022-07-10T03:46:22;3.27;;;1.87;;
5460;SDS011;2753;49.196;8.286;2022-07-10T03:48:48;6.00;;;1.60;;
5460;SDS011;2753;49.196;8.286;2022-07-10T03:51:14;2.07;;;1.40;;
5460;SDS011;2753;49.196;8.286;2022-07-10T03:53:39;4.83;;;1.77;;
5460;SDS011;2753;49.196;8.286;2022-07-10T03:56:05;5.83;;;2.23;;
5460;SDS011;2753;49.196;8.286;2022-07-10T03:58:31;7.23;;;2.03;;
5460;SDS011;2753;49.196;8.286;2022-07-10T04:00:56;5.27;;;1.70;;
5460;SDS011;2753;49.196;8.286;2022-07-10T04:03:22;4.37;;;1.33;;
5460;SDS011;2753;49.196;8.286;2022-07-10T04:05:48;5.10;;;1.50;;
5460;SDS011;2753;49.196;8.286;2022-07-10T04:08:13;5.33;;;1.73;;
5460;SDS011;2753;49.196;8.286;2022-07-10T04:10:39;5.23;;;1.43;;
5460;SDS011;2753;49.196;8.286;2022-07-10T04:13:05;4.20;;;1.47;;
5460;SDS011;2753;49.196;8.286;2022-07-10T04:15:30;7.77;;;1.60;;
5460;SDS011;2753;49.196;8.286;2022-07-10T04:17:56;7.87;;;1.97;;
5460;SDS011;2753;49.196;8.286;2022-07-10T04:20:22;3.30;;;1.57;;
5460;SDS011;2753;49.196;8.286;2022-07-10T04:22:48;2.13;;;1.40;;
5460;SDS011;2753;49.196;8.286;2022-07-10T04:25:14;3.90;;;1.80;;
5460;SDS011;2753;49.196;8.286;2022-07-10T04:27:40;3.13;;;1.70;;
5460;SDS011;2753;49.196;8.286;2022-07-10T04:30:06;6.43;;;1.67;;
5460;SDS011;2753;49.196;8.286;2022-07-10T04:32:32;1.53;;;1.27;;
5460;SDS011;2753;49.196;8.286;2022-07-10T04:34:57;2.90;;;1.50;;
5460;SDS011;2753;49.196;8.286;2022-07-10T04:37:24;7.03;;;1.60;;
5460;SDS011;2753;49.196;8.286;2022-07-10T04:39:49;1.97;;;1.50;;
5460;SDS011;2753;49.196;8.286;2022-07-10T04:42:15;4.20;;;1.57;;
5460;SDS011;2753;49.196;8.286;2022-07-10T04:44:42;3.40;;;1.17;;
5460;SDS011;2753;49.196;8.286;2022-07-10T04:47:07;4.97;;;1.20;;
5460;SDS011;2753;49.196;8.286;2022-07-10T04:49:33;5.13;;;1.80;;
5460;SDS011;2753;49.196;8.286;2022-07-10T04:51:59;2.83;;;1.40;;
5460;SDS011;2753;49.196;8.286;2022-07-10T04:54:25;5.93;;;1.40;;
5460;SDS011;2753;49.196;8.286;2022-07-10T04:56:52;2.70;;;1.50;;
5460;SDS011;2753;49.196;8.286;2022-07-10T04:59:17;6.33;;;1.70;;
5460;SDS011;2753;49.196;8.286;2022-07-10T05:01:43;5.00;;;1.70;;
5460;SDS011;2753;49.196;8.286;2022-07-10T05:04:09;7.63;;;3.10;;
5460;SDS011;2753;49.196;8.286;2022-07-10T05:06:35;8.03;;;1.40;;
5460;SDS011;2753;49.196;8.286;2022-07-10T05:09:01;4.10;;;1.80;;
5460;SDS011;2753;49.196;8.286;2022-07-10T05:11:27;14.60;;;2.57;;
5460;SDS011;2753;49.196;8.286;2022-07-10T05:13:53;2.37;;;1.70;;
5460;SDS011;2753;49.196;8.286;2022-07-10T05:16:18;5.33;;;2.03;;
5460;SDS011;2753;49.196;8.286;2022-07-10T05:18:44;9.60;;;1.77;;
5460;SDS011;2753;49.196;8.286;2022-07-10T05:21:10;8.83;;;1.80;;
5460;SDS011;2753;49.196;8.286;2022-07-10T05:23:37;3.93;;;1.50;;
5460;SDS011;2753;49.196;8.286;2022-07-10T05:26:03;5.17;;;1.50;;
5460;SDS011;2753;49.196;8.286;2022-07-10T05:28:29;1.80;;;1.70;;
5460;SDS011;2753;49.196;8.286;2022-07-10T05:30:55;2.30;;;1.43;;
5460;SDS011;2753;49.196;8.286;2022-07-10T05:33:20;3.87;;;1.67;;
5460;SDS011;2753;49.196;8.286;2022-07-10T05:35:46;4.27;;;1.63;;
5460;SDS011;2753;49.196;8.286;2022-07-10T05:38:12;9.00;;;1.70;;
5460;SDS011;2753;49.196;8.286;2022-07-10T05:40:38;7.37;;;1.63;;
5460;SDS011;2753;49.196;8.286;2022-07-10T05:43:03;10.97;;;1.47;;
5460;SDS011;2753;49.196;8.286;2022-07-10T05:45:29;6.80;;;1.70;;
5460;SDS011;2753;49.196;8.286;2022-07-10T05:47:55;4.83;;;1.67;;
5460;SDS011;2753;49.196;8.286;2022-07-10T05:50:21;4.27;;;1.90;;
5460;SDS011;2753;49.196;8.286;2022-07-10T05:52:46;4.50;;;1.33;;
5460;SDS011;2753;49.196;8.286;2022-07-10T05:55:12;4.73;;;1.40;;
5460;SDS011;2753;49.196;8.286;2022-07-10T05:57:39;6.00;;;1.60;;
5460;SDS011;2753;49.196;8.286;2022-07-10T06:00:05;5.93;;;1.60;;
5460;SDS011;2753;49.196;8.286;2022-07-10T06:02:32;1.70;;;1.60;;
5460;SDS011;2753;49.196;8.286;2022-07-10T06:04:57;7.97;;;1.63;;
5460;SDS011;2753;49.196;8.286;2022-07-10T06:07:23;4.77;;;1.10;;
5460;SDS011;2753;49.196;8.286;2022-07-10T06:09:48;6.80;;;2.00;;
5460;SDS011;2753;49.196;8.286;2022-07-10T06:12:14;3.03;;;1.30;;
5460;SDS011;2753;49.196;8.286;2022-07-10T06:14:42;2.30;;;1.40;;
5460;SDS011;2753;49.196;8.286;2022-07-10T06:17:08;3.00;;;1.10;;
5460;SDS011;2753;49.196;8.286;2022-07-10T06:19:34;6.93;;;1.50;;
5460;SDS011;2753;49.196;8.286;2022-07-10T06:22:00;6.67;;;1.30;;
5460;SDS011;2753;49.196;8.286;2022-07-10T06:24:44;3.97;;;1.33;;
5460;SDS011;2753;49.196;8.286;2022-07-10T06:27:10;5.90;;;1.27;;
5460;SDS011;2753;49.196;8.286;2022-07-10T06:29:36;6.90;;;1.00;;
5460;SDS011;2753;49.196;8.286;2022-07-10T06:32:02;4.47;;;1.50;;
5460;SDS011;2753;49.196;8.286;2022-07-10T06:34:28;4.50;;;1.00;;
5460;SDS011;2753;49.196;8.286;2022-07-10T06:36:53;5.50;;;1.47;;
5460;SDS011;2753;49.196;8.286;2022-07-10T06:39:19;2.63;;;1.83;;
5460;SDS011;2753;49.196;8.286;2022-07-10T06:41:45;4.50;;;0.93;;
5460;SDS011;2753;49.196;8.286;2022-07-10T06:44:11;8.30;;;1.20;;
5460;SDS011;2753;49.196;8.286;2022-07-10T06:46:36;6.83;;;1.30;;
5460;SDS011;2753;49.196;8.286;2022-07-10T06:49:02;5.13;;;1.30;;
5460;SDS011;2753;49.196;8.286;2022-07-10T06:51:28;3.53;;;1.73;;
5460;SDS011;2753;49.196;8.286;2022-07-10T06:53:54;10.07;;;1.53;;
5460;SDS011;2753;49.196;8.286;2022-07-10T06:56:22;6.63;;;1.40;;
5460;SDS011;2753;49.196;8.286;2022-07-10T06:58:47;2.47;;;1.07;;
5460;SDS011;2753;49.196;8.286;2022-07-10T07:01:13;4.00;;;1.43;;
5460;SDS011;2753;49.196;8.286;2022-07-10T07:03:39;3.27;;;1.00;;
5460;SDS011;2753;49.196;8.286;2022-07-10T07:06:05;2.70;;;0.90;;
5460;SDS011;2753;49.196;8.286;2022-07-10T07:08:31;5.70;;;1.20;;
5460;SDS011;2753;49.196;8.286;2022-07-10T07:10:56;6.10;;;0.83;;
5460;SDS011;2753;49.196;8.286;2022-07-10T07:13:22;3.70;;;1.20;;
5460;SDS011;2753;49.196;8.286;2022-07-10T07:15:48;4.43;;;1.10;;
5460;SDS011;2753;49.196;8.286;2022-07-10T07:18:30;4.40;;;1.67;;
5460;SDS011;2753;49.196;8.286;2022-07-10T07:21:00;2.67;;;1.00;;
5460;SDS011;2753;49.196;8.286;2022-07-10T07:23:44;4.33;;;0.80;;
5460;SDS011;2753;49.196;8.286;2022-07-10T07:26:10;5.33;;;1.10;;
5460;SDS011;2753;49.196;8.286;2022-07-10T07:28:36;6.63;;;1.00;;
5460;SDS011;2753;49.196;8.286;2022-07-10T07:31:02;2.17;;;1.03;;
5460;SDS011;2753;49.196;8.286;2022-07-10T07:33:27;2.93;;;0.80;;
5460;SDS011;2753;49.196;8.286;2022-07-10T07:35:53;1.37;;;1.00;;
5460;SDS011;2753;49.196;8.286;2022-07-10T07:38:18;3.63;;;1.23;;
5460;SDS011;2753;49.196;8.286;2022-07-10T07:40:44;1.40;;;0.73;;
5460;SDS011;2753;49.196;8.286;2022-07-10T07:43:10;3.33;;;0.80;;
5460;SDS011;2753;49.196;8.286;2022-07-10T07:45:36;4.07;;;0.97;;
5460;SDS011;2753;49.196;8.286;2022-07-10T07:48:02;4.00;;;0.70;;
5460;SDS011;2753;49.196;8.286;2022-07-10T07:50:29;4.23;;;0.87;;
5460;SDS011;2753;49.196;8.286;2022-07-10T07:53:00;3.23;;;0.93;;
5460;SDS011;2753;49.196;8.286;2022-07-10T07:55:27;4.93;;;0.93;;
5460;SDS011;2753;49.196;8.286;2022-07-10T07:57:54;5.73;;;0.93;;
5460;SDS011;2753;49.196;8.286;2022-07-10T08:00:21;8.73;;;1.53;;
5460;SDS011;2753;49.196;8.286;2022-07-10T08:02:52;5.83;;;0.97;;
5460;SDS011;2753;49.196;8.286;2022-07-10T08:05:19;4.27;;;0.80;;
5460;SDS011;2753;49.196;8.286;2022-07-10T08:07:46;1.90;;;1.00;;
5460;SDS011;2753;49.196;8.286;2022-07-10T08:10:18;2.00;;;0.93;;
5460;SDS011;2753;49.196;8.286;2022-07-10T08:12:45;4.50;;;0.83;;
5460;SDS011;2753;49.196;8.286;2022-07-10T08:15:12;1.77;;;0.73;;
5460;SDS011;2753;49.196;8.286;2022-07-10T08:17:39;6.20;;;0.90;;
5460;SDS011;2753;49.196;8.286;2022-07-10T08:20:06;2.60;;;1.10;;
5460;SDS011;2753;49.196;8.286;2022-07-10T08:22:33;3.03;;;0.90;;
5460;SDS011;2753;49.196;8.286;2022-07-10T08:24:59;3.43;;;0.90;;
5460;SDS011;2753;49.196;8.286;2022-07-10T08:27:25;2.50;;;1.40;;
5460;SDS011;2753;49.196;8.286;2022-07-10T08:29:51;2.83;;;0.97;;
5460;SDS011;2753;49.196;8.286;2022-07-10T08:32:17;3.60;;;0.93;;
5460;SDS011;2753;49.196;8.286;2022-07-10T08:34:43;3.40;;;0.70;;
5460;SDS011;2753;49.196;8.286;2022-07-10T08:37:09;2.33;;;0.90;;
5460;SDS011;2753;49.196;8.286;2022-07-10T08:39:34;1.37;;;0.77;;
5460;SDS011;2753;49.196;8.286;2022-07-10T08:42:00;1.57;;;0.80;;
5460;SDS011;2753;49.196;8.286;2022-07-10T08:44:28;0.90;;;0.73;;
5460;SDS011;2753;49.196;8.286;2022-07-10T08:46:54;3.10;;;0.80;;
5460;SDS011;2753;49.196;8.286;2022-07-10T08:49:22;5.13;;;1.20;;
5460;SDS011;2753;49.196;8.286;2022-07-10T08:54:27;2.53;;;1.03;;
5460;SDS011;2753;49.196;8.286;2022-07-10T08:56:56;8.00;;;0.80;;
5460;SDS011;2753;49.196;8.286;2022-07-10T08:59:23;2.07;;;0.80;;
5460;SDS011;2753;49.196;8.286;2022-07-10T09:01:49;3.13;;;0.70;;
5460;SDS011;2753;49.196;8.286;2022-07-10T09:04:19;1.20;;;0.80;;
5460;SDS011;2753;49.196;8.286;2022-07-10T09:06:46;1.30;;;0.90;;
5460;SDS011;2753;49.196;8.286;2022-07-10T09:09:12;2.10;;;0.93;;
5460;SDS011;2753;49.196;8.286;2022-07-10T09:11:38;2.90;;;1.20;;
5460;SDS011;2753;49.196;8.286;2022-07-10T09:14:11;5.00;;;0.93;;
5460;SDS011;2753;49.196;8.286;2022-07-10T09:16:41;2.90;;;1.00;;
5460;SDS011;2753;49.196;8.286;2022-07-10T09:21:40;1.70;;;0.90;;
5460;SDS011;2753;49.196;8.286;2022-07-10T09:24:07;2.47;;;0.70;;
5460;SDS011;2753;49.196;8.286;2022-07-10T09:26:35;0.80;;;0.80;;
5460;SDS011;2753;49.196;8.286;2022-07-10T09:29:09;3.43;;;0.70;;
5460;SDS011;2753;49.196;8.286;2022-07-10T09:31:53;3.93;;;0.80;;
5460;SDS011;2753;49.196;8.286;2022-07-10T09:37:21;2.83;;;0.70;;
5460;SDS011;2753;49.196;8.286;2022-07-10T09:39:51;2.30;;;1.03;;
5460;SDS011;2753;49.196;8.286;2022-07-10T09:42:39;1.00;;;0.80;;
5460;SDS011;2753;49.196;8.286;2022-07-10T09:50:04;4.47;;;1.07;;
5460;SDS011;2753;49.196;8.286;2022-07-10T09:52:45;5.83;;;1.43;;
5460;SDS011;2753;49.196;8.286;2022-07-10T09:55:12;4.30;;;1.10;;
5460;SDS011;2753;49.196;8.286;2022-07-10T09:57:39;3.07;;;0.87;;
5460;SDS011;2753;49.196;8.286;2022-07-10T10:00:07;5.00;;;0.93;;
5460;SDS011;2753;49.196;8.286;2022-07-10T10:02:34;1.73;;;0.83;;
5460;SDS011;2753;49.196;8.286;2022-07-10T10:05:01;1.83;;;1.00;;
5460;SDS011;2753;49.196;8.286;2022-07-10T10:07:28;1.70;;;0.57;;
5460;SDS011;2753;49.196;8.286;2022-07-10T10:09:54;2.67;;;0.80;;
5460;SDS011;2753;49.196;8.286;2022-07-10T10:12:39;0.70;;;0.53;;
5460;SDS011;2753;49.196;8.286;2022-07-10T10:15:10;1.87;;;0.90;;
5460;SDS011;2753;49.196;8.286;2022-07-10T10:17:37;2.83;;;1.03;;
5460;SDS011;2753;49.196;8.286;2022-07-10T10:20:05;2.47;;;1.17;;
5460;SDS011;2753;49.196;8.286;2022-07-10T10:22:52;2.37;;;0.70;;
5460;SDS011;2753;49.196;8.286;2022-07-10T10:25:20;4.70;;;0.93;;
5460;SDS011;2753;49.196;8.286;2022-07-10T10:27:49;2.70;;;0.77;;
5460;SDS011;2753;49.196;8.286;2022-07-10T10:30:15;2.30;;;1.07;;
5460;SDS011;2753;49.196;8.286;2022-07-10T10:32:42;2.87;;;1.00;;
5460;SDS011;2753;49.196;8.286;2022-07-10T10:35:08;3.87;;;1.00;;
5460;SDS011;2753;49.196;8.286;2022-07-10T10:37:40;3.37;;;1.20;;
5460;SDS011;2753;49.196;8.286;2022-07-10T10:40:29;2.80;;;0.77;;
5460;SDS011;2753;49.196;8.286;2022-07-10T10:42:58;1.40;;;0.80;;
5460;SDS011;2753;49.196;8.286;2022-07-10T10:45:39;4.60;;;1.10;;
5460;SDS011;2753;49.196;8.286;2022-07-10T10:48:06;2.27;;;0.70;;
5460;SDS011;2753;49.196;8.286;2022-07-10T10:50:38;2.70;;;0.60;;
5460;SDS011;2753;49.196;8.286;2022-07-10T10:53:15;3.60;;;0.80;;
5460;SDS011;2753;49.196;8.286;2022-07-10T10:56:41;4.10;;;0.93;;
5460;SDS011;2753;49.196;8.286;2022-07-10T11:06:52;4.57;;;1.10;;
5460;SDS011;2753;49.196;8.286;2022-07-10T11:09:28;3.23;;;1.00;;
5460;SDS011;2753;49.196;8.286;2022-07-10T11:14:34;4.87;;;0.80;;
5460;SDS011;2753;49.196;8.286;2022-07-10T11:17:03;3.33;;;0.70;;
5460;SDS011;2753;49.196;8.286;2022-07-10T11:19:30;1.87;;;1.17;;
5460;SDS011;2753;49.196;8.286;2022-07-10T11:25:35;5.43;;;1.17;;
5460;SDS011;2753;49.196;8.286;2022-07-10T11:28:46;5.60;;;1.20;;
5460;SDS011;2753;49.196;8.286;2022-07-10T11:31:19;5.30;;;1.13;;
5460;SDS011;2753;49.196;8.286;2022-07-10T11:33:47;1.57;;;0.70;;
5460;SDS011;2753;49.196;8.286;2022-07-10T11:36:26;11.40;;;1.60;;
5460;SDS011;2753;49.196;8.286;2022-07-10T11:38:58;1.73;;;0.83;;
5460;SDS011;2753;49.196;8.286;2022-07-10T11:41:30;3.13;;;1.00;;
5460;SDS011;2753;49.196;8.286;2022-07-10T11:43:57;4.83;;;1.20;;
5460;SDS011;2753;49.196;8.286;2022-07-10T11:46:25;2.10;;;0.73;;
5460;SDS011;2753;49.196;8.286;2022-07-10T11:48:53;5.27;;;1.13;;
5460;SDS011;2753;49.196;8.286;2022-07-10T11:56:21;4.57;;;1.10;;
5460;SDS011;2753;49.196;8.286;2022-07-10T11:58:54;2.47;;;1.00;;
5460;SDS011;2753;49.196;8.286;2022-07-10T12:01:21;4.27;;;1.77;;
5460;SDS011;2753;49.196;8.286;2022-07-10T12:03:57;2.83;;;0.93;;
5460;SDS011;2753;49.196;8.286;2022-07-10T12:06:25;5.97;;;2.50;;
5460;SDS011;2753;49.196;8.286;2022-07-10T12:08:52;6.63;;;1.53;;
5460;SDS011;2753;49.196;8.286;2022-07-10T12:11:18;3.60;;;1.20;;
5460;SDS011;2753;49.196;8.286;2022-07-10T12:13:46;10.43;;;0.80;;
5460;SDS011;2753;49.196;8.286;2022-07-10T12:16:13;1.47;;;0.93;;
5460;SDS011;2753;49.196;8.286;2022-07-10T12:18:39;4.77;;;0.87;;
5460;SDS011;2753;49.196;8.286;2022-07-10T12:21:08;3.27;;;1.43;;
5460;SDS011;2753;49.196;8.286;2022-07-10T12:23:35;3.63;;;1.90;;
5460;SDS011;2753;49.196;8.286;2022-07-10T12:26:03;4.03;;;1.00;;
5460;SDS011;2753;49.196;8.286;2022-07-10T12:28:29;5.20;;;0.93;;
5460;SDS011;2753;49.196;8.286;2022-07-10T12:30:55;3.23;;;1.00;;
5460;SDS011;2753;49.196;8.286;2022-07-10T12:33:21;6.23;;;1.20;;
5460;SDS011;2753;49.196;8.286;2022-07-10T12:35:54;3.73;;;1.30;;
5460;SDS011;2753;49.196;8.286;2022-07-10T12:38:22;3.63;;;1.07;;
5460;SDS011;2753;49.196;8.286;2022-07-10T12:40:48;4.23;;;2.63;;
5460;SDS011;2753;49.196;8.286;2022-07-10T12:43:27;5.33;;;1.77;;
5460;SDS011;2753;49.196;8.286;2022-07-10T12:51:42;5.27;;;1.00;;
5460;SDS011;2753;49.196;8.286;2022-07-10T12:56:58;4.53;;;1.00;;
5460;SDS011;2753;49.196;8.286;2022-07-10T12:59:26;5.40;;;0.97;;
5460;SDS011;2753;49.196;8.286;2022-07-10T13:01:52;6.40;;;2.07;;
5460;SDS011;2753;49.196;8.286;2022-07-10T13:04:22;3.07;;;1.40;;
5460;SDS011;2753;49.196;8.286;2022-07-10T13:06:50;3.30;;;1.10;;
5460;SDS011;2753;49.196;8.286;2022-07-10T13:11:46;9.43;;;1.67;;
5460;SDS011;2753;49.196;8.286;2022-07-10T13:14:11;2.70;;;0.83;;
5460;SDS011;2753;49.196;8.286;2022-07-10T13:16:37;2.33;;;0.90;;
5460;SDS011;2753;49.196;8.286;2022-07-10T13:19:03;2.10;;;0.90;;
5460;SDS011;2753;49.196;8.286;2022-07-10T13:21:28;2.67;;;1.17;;
5460;SDS011;2753;49.196;8.286;2022-07-10T13:23:54;2.10;;;1.00;;
5460;SDS011;2753;49.196;8.286;2022-07-10T13:26:20;1.73;;;0.90;;
5460;SDS011;2753;49.196;8.286;2022-07-10T13:28:45;10.40;;;1.57;;
5460;SDS011;2753;49.196;8.286;2022-07-10T13:31:11;5.97;;;1.17;;
5460;SDS011;2753;49.196;8.286;2022-07-10T13:33:37;4.73;;;1.23;;
5460;SDS011;2753;49.196;8.286;2022-07-10T13:36:03;2.40;;;1.07;;
5460;SDS011;2753;49.196;8.286;2022-07-10T13:38:29;8.30;;;1.60;;
5460;SDS011;2753;49.196;8.286;2022-07-10T13:40:56;4.57;;;1.57;;
5460;SDS011;2753;49.196;8.286;2022-07-10T13:43:22;1.50;;;1.00;;
5460;SDS011;2753;49.196;8.286;2022-07-10T13:45:53;3.67;;;1.43;;
5460;SDS011;2753;49.196;8.286;2022-07-10T13:48:22;3.10;;;1.20;;
5460;SDS011;2753;49.196;8.286;2022-07-10T13:50:48;10.13;;;1.23;;
5460;SDS011;2753;49.196;8.286;2022-07-10T13:53:15;2.97;;;1.43;;
5460;SDS011;2753;49.196;8.286;2022-07-10T13:55:43;1.90;;;0.93;;
5460;SDS011;2753;49.196;8.286;2022-07-10T13:58:10;4.87;;;1.00;;
5460;SDS011;2753;49.196;8.286;2022-07-10T14:00:37;6.70;;;1.20;;
5460;SDS011;2753;49.196;8.286;2022-07-10T14:03:03;5.17;;;1.50;;
5460;SDS011;2753;49.196;8.286;2022-07-10T14:05:30;3.70;;;1.60;;
5460;SDS011;2753;49.196;8.286;2022-07-10T14:07:57;7.00;;;1.70;;
5460;SDS011;2753;49.196;8.286;2022-07-10T14:10:23;3.50;;;1.23;;
5460;SDS011;2753;49.196;8.286;2022-07-10T14:12:49;10.67;;;1.37;;
5460;SDS011;2753;49.196;8.286;2022-07-10T14:15:16;2.87;;;1.30;;
5460;SDS011;2753;49.196;8.286;2022-07-10T14:17:42;3.00;;;1.23;;
5460;SDS011;2753;49.196;8.286;2022-07-10T14:20:08;6.30;;;1.10;;
5460;SDS011;2753;49.196;8.286;2022-07-10T14:22:34;10.57;;;1.50;;
5460;SDS011;2753;49.196;8.286;2022-07-10T14:25:01;6.13;;;1.87;;
5460;SDS011;2753;49.196;8.286;2022-07-10T14:27:27;2.37;;;1.23;;
5460;SDS011;2753;49.196;8.286;2022-07-10T14:29:56;6.63;;;2.03;;
5460;SDS011;2753;49.196;8.286;2022-07-10T14:32:23;3.57;;;1.23;;
5460;SDS011;2753;49.196;8.286;2022-07-10T14:34:48;3.20;;;1.20;;
5460;SDS011;2753;49.196;8.286;2022-07-10T14:37:14;6.73;;;1.07;;
5460;SDS011;2753;49.196;8.286;2022-07-10T14:39:40;7.30;;;1.20;;
5460;SDS011;2753;49.196;8.286;2022-07-10T14:42:06;3.93;;;1.00;;
5460;SDS011;2753;49.196;8.286;2022-07-10T14:44:35;3.93;;;1.40;;
5460;SDS011;2753;49.196;8.286;2022-07-10T14:47:01;2.60;;;1.30;;
5460;SDS011;2753;49.196;8.286;2022-07-10T14:49:27;2.77;;;1.17;;
5460;SDS011;2753;49.196;8.286;2022-07-10T14:51:52;3.03;;;0.90;;
5460;SDS011;2753;49.196;8.286;2022-07-10T14:54:19;2.93;;;1.40;;
5460;SDS011;2753;49.196;8.286;2022-07-10T14:56:45;7.40;;;1.50;;
5460;SDS011;2753;49.196;8.286;2022-07-10T14:59:11;5.57;;;1.20;;
5460;SDS011;2753;49.196;8.286;2022-07-10T15:01:36;3.77;;;1.00;;
5460;SDS011;2753;49.196;8.286;2022-07-10T15:04:02;5.30;;;0.87;;
5460;SDS011;2753;49.196;8.286;2022-07-10T15:06:28;9.33;;;1.57;;
5460;SDS011;2753;49.196;8.286;2022-07-10T15:08:53;4.10;;;1.60;;
5460;SDS011;2753;49.196;8.286;2022-07-10T15:11:19;3.77;;;2.30;;
5460;SDS011;2753;49.196;8.286;2022-07-10T15:13:48;7.47;;;3.60;;
5460;SDS011;2753;49.196;8.286;2022-07-10T15:16:16;11.07;;;4.00;;
5460;SDS011;2753;49.196;8.286;2022-07-10T15:18:42;5.60;;;2.87;;
5460;SDS011;2753;49.196;8.286;2022-07-10T15:21:08;2.30;;;1.10;;
5460;SDS011;2753;49.196;8.286;2022-07-10T15:23:34;2.47;;;1.00;;
5460;SDS011;2753;49.196;8.286;2022-07-10T15:25:59;4.87;;;2.97;;
5460;SDS011;2753;49.196;8.286;2022-07-10T15:28:26;3.60;;;1.43;;
5460;SDS011;2753;49.196;8.286;2022-07-10T15:30:51;1.40;;;1.30;;
5460;SDS011;2753;49.196;8.286;2022-07-10T15:33:17;13.57;;;5.93;;
5460;SDS011;2753;49.196;8.286;2022-07-10T15:35:43;10.00;;;5.17;;
5460;SDS011;2753;49.196;8.286;2022-07-10T15:38:08;3.20;;;2.73;;
5460;SDS011;2753;49.196;8.286;2022-07-10T15:40:34;3.27;;;1.50;;
5460;SDS011;2753;49.196;8.286;2022-07-10T15:43:00;4.43;;;0.87;;
5460;SDS011;2753;49.196;8.286;2022-07-10T15:45:26;1.17;;;1.17;;
5460;SDS011;2753;49.196;8.286;2022-07-10T15:47:52;2.60;;;1.00;;
5460;SDS011;2753;49.196;8.286;2022-07-10T15:50:18;1.50;;;1.40;;
5460;SDS011;2753;49.196;8.286;2022-07-10T15:52:44;2.70;;;1.10;;
5460;SDS011;2753;49.196;8.286;2022-07-10T15:55:11;4.87;;;2.40;;
5460;SDS011;2753;49.196;8.286;2022-07-10T15:57:37;1.40;;;1.20;;
5460;SDS011;2753;49.196;8.286;2022-07-10T16:00:04;4.40;;;1.70;;